sensor_id;sensor_type;location;lat;lon;timestamp;pressure;altitude;pressure_sealevel;temperature;humidity
46598;BME280;32318;48.858;8.252;2022-07-22T00:04:30;100622.03;;;22.23;55.81
46598;BME280;32318;48.858;8.252;2022-07-22T00:12:31;100625.97;;;22.27;55.32
46598;BME280;32318;48.858;8.252;2022-07-22T00:20:31;100618.47;;;22.11;55.57
46598;BME280;32318;48.858;8.252;2022-07-22T00:28:31;100606.94;;;21.85;56.19
46598;BME280;32318;48.858;8.252;2022-07-22T00:36:32;100610.25;;;21.68;56.73
46598;BME280;32318;48.858;8.252;2022-07-22T00:44:32;100599.66;;;21.78;56.51
46598;BME280;32318;48.858;8.252;2022-07-22T00:52:33;100594.09;;;21.55;57.92
46598;BME280;32318;48.858;8.252;2022-07-22T01:00:33;100598.13;;;21.15;59.98
46598;BME280;32318;48.858;8.252;2022-07-22T01:08:34;100589.56;;;20.93;61.66
46598;BME280;32318;48.858;8.252;2022-07-22T01:16:35;100589.44;;;20.88;63.23
46598;BME280;32318;48.858;8.252;2022-07-22T01:24:36;100588.22;;;20.83;64.33
46598;BME280;32318;48.858;8.252;2022-07-22T01:32:36;100595.41;;;20.71;64.58
46598;BME280;32318;48.858;8.252;2022-07-22T01:40:37;100595.22;;;20.66;64.86
46598;BME280;32318;48.858;8.252;2022-07-22T01:48:38;100592.19;;;20.56;65.64
46598;BME280;32318;48.858;8.252;2022-07-22T01:56:38;100582.72;;;20.40;65.70
46598;BME280;32318;48.858;8.252;2022-07-22T02:04:38;100590.88;;;20.40;66.33
46598;BME280;32318;48.858;8.252;2022-07-22T02:12:39;100587.78;;;20.36;66.29
46598;BME280;32318;48.858;8.252;2022-07-22T02:20:39;100581.34;;;20.30;66.52
46598;BME280;32318;48.858;8.252;2022-07-22T02:28:39;100581.78;;;20.27;66.87
46598;BME280;32318;48.858;8.252;2022-07-22T02:36:40;100583.66;;;20.27;66.80
46598;BME280;32318;48.858;8.252;2022-07-22T02:44:40;100583.94;;;20.18;67.18
46598;BME280;32318;48.858;8.252;2022-07-22T02:52:41;100582.09;;;20.12;67.12
46598;BME280;32318;48.858;8.252;2022-07-22T03:00:41;100577.19;;;19.96;67.80
46598;BME280;32318;48.858;8.252;2022-07-22T03:08:41;100580.78;;;19.89;68.69
46598;BME280;32318;48.858;8.252;2022-07-22T03:16:42;100586.25;;;19.76;68.88
46598;BME280;32318;48.858;8.252;2022-07-22T03:24:42;100586.06;;;19.71;69.16
46598;BME280;32318;48.858;8.252;2022-07-22T03:32:42;100581.91;;;19.68;69.25
46598;BME280;32318;48.858;8.252;2022-07-22T03:40:45;100574.66;;;19.62;69.60
46598;BME280;32318;48.858;8.252;2022-07-22T03:48:45;100566.56;;;19.55;69.78
46598;BME280;32318;48.858;8.252;2022-07-22T03:56:45;100570.31;;;19.48;70.15
46598;BME280;32318;48.858;8.252;2022-07-22T04:04:46;100560.75;;;19.45;70.32
46598;BME280;32318;48.858;8.252;2022-07-22T04:12:46;100562.25;;;19.41;70.34
46598;BME280;32318;48.858;8.252;2022-07-22T04:20:46;100556.63;;;19.36;70.45
46598;BME280;32318;48.858;8.252;2022-07-22T04:28:47;100558.72;;;19.34;70.75
46598;BME280;32318;48.858;8.252;2022-07-22T04:36:48;100564.56;;;19.31;70.48
46598;BME280;32318;48.858;8.252;2022-07-22T04:44:48;100554.16;;;19.34;70.48
46598;BME280;32318;48.858;8.252;2022-07-22T04:52:48;100547.66;;;19.42;69.93
46598;BME280;32318;48.858;8.252;2022-07-22T05:00:49;100551.19;;;19.42;69.60
46598;BME280;32318;48.858;8.252;2022-07-22T05:08:49;100556.19;;;19.46;68.89
46598;BME280;32318;48.858;8.252;2022-07-22T05:16:49;100548.47;;;19.49;68.44
46598;BME280;32318;48.858;8.252;2022-07-22T05:24:49;100543.84;;;19.56;68.06
46598;BME280;32318;48.858;8.252;2022-07-22T05:32:50;100551.75;;;19.58;68.39
46598;BME280;32318;48.858;8.252;2022-07-22T05:40:51;100546.00;;;19.80;67.45
46598;BME280;32318;48.858;8.252;2022-07-22T05:48:51;100534.84;;;20.01;66.49
46598;BME280;32318;48.858;8.252;2022-07-22T05:56:51;100541.88;;;20.34;65.39
46598;BME280;32318;48.858;8.252;2022-07-22T06:04:52;100541.31;;;20.51;65.46
46598;BME280;32318;48.858;8.252;2022-07-22T06:12:53;100530.59;;;20.81;65.19
46598;BME280;32318;48.858;8.252;2022-07-22T06:20:53;100529.78;;;21.18;64.30
46598;BME280;32318;48.858;8.252;2022-07-22T06:28:53;100529.91;;;21.42;63.51
46598;BME280;32318;48.858;8.252;2022-07-22T06:36:54;100530.31;;;21.57;63.40
46598;BME280;32318;48.858;8.252;2022-07-22T06:44:54;100509.66;;;21.87;62.44
46598;BME280;32318;48.858;8.252;2022-07-22T06:52:54;100519.38;;;22.06;62.15
46598;BME280;32318;48.858;8.252;2022-07-22T07:00:55;100507.72;;;22.30;61.69
46598;BME280;32318;48.858;8.252;2022-07-22T07:08:55;100497.56;;;22.49;61.21
46598;BME280;32318;48.858;8.252;2022-07-22T07:16:57;100485.59;;;22.74;59.95
46598;BME280;32318;48.858;8.252;2022-07-22T07:25:03;100486.66;;;22.84;60.09
46598;BME280;32318;48.858;8.252;2022-07-22T07:33:03;100489.31;;;23.08;59.30
46598;BME280;32318;48.858;8.252;2022-07-22T07:41:04;100475.75;;;23.25;59.00
46598;BME280;32318;48.858;8.252;2022-07-22T07:49:04;100479.47;;;23.48;58.58
46598;BME280;32318;48.858;8.252;2022-07-22T07:57:04;100475.63;;;23.78;57.36
46598;BME280;32318;48.858;8.252;2022-07-22T08:05:06;100469.19;;;23.84;57.50
46598;BME280;32318;48.858;8.252;2022-07-22T08:13:06;100457.56;;;24.06;56.96
46598;BME280;32318;48.858;8.252;2022-07-22T08:21:07;100458.53;;;24.34;56.37
46598;BME280;32318;48.858;8.252;2022-07-22T08:29:07;100453.03;;;24.51;56.13
46598;BME280;32318;48.858;8.252;2022-07-22T08:37:10;100454.81;;;24.79;55.43
46598;BME280;32318;48.858;8.252;2022-07-22T08:45:10;100448.13;;;24.92;54.14
46598;BME280;32318;48.858;8.252;2022-07-22T08:53:12;100435.53;;;25.13;53.98
46598;BME280;32318;48.858;8.252;2022-07-22T09:01:14;100429.09;;;25.52;53.00
46598;BME280;32318;48.858;8.252;2022-07-22T09:09:29;100423.41;;;25.59;52.86
46598;BME280;32318;48.858;8.252;2022-07-22T09:17:37;100413.03;;;25.93;51.70
46598;BME280;32318;48.858;8.252;2022-07-22T09:25:39;100414.66;;;26.32;50.67
46598;BME280;32318;48.858;8.252;2022-07-22T09:33:40;100407.59;;;26.46;50.32
46598;BME280;32318;48.858;8.252;2022-07-22T09:41:58;100385.22;;;26.60;50.11
46598;BME280;32318;48.858;8.252;2022-07-22T09:49:58;100381.75;;;26.85;49.34
46598;BME280;32318;48.858;8.252;2022-07-22T09:57:59;100368.66;;;27.03;48.90
46598;BME280;32318;48.858;8.252;2022-07-22T10:06:00;100379.09;;;27.16;48.46
46598;BME280;32318;48.858;8.252;2022-07-22T10:14:01;100372.03;;;27.51;47.44
46598;BME280;32318;48.858;8.252;2022-07-22T10:22:02;100362.94;;;27.71;47.12
46598;BME280;32318;48.858;8.252;2022-07-22T10:30:04;100358.00;;;27.79;46.81
46598;BME280;32318;48.858;8.252;2022-07-22T10:38:06;100340.38;;;28.06;46.33
46598;BME280;32318;48.858;8.252;2022-07-22T10:46:08;100341.34;;;28.46;45.14
46598;BME280;32318;48.858;8.252;2022-07-22T10:54:09;100327.56;;;28.56;44.44
46598;BME280;32318;48.858;8.252;2022-07-22T11:02:11;100310.22;;;28.71;44.65
46598;BME280;32318;48.858;8.252;2022-07-22T11:10:16;100299.28;;;29.01;43.29
46598;BME280;32318;48.858;8.252;2022-07-22T11:18:16;100300.31;;;29.10;43.94
46598;BME280;32318;48.858;8.252;2022-07-22T11:26:19;100283.09;;;29.34;42.43
46598;BME280;32318;48.858;8.252;2022-07-22T11:34:21;100267.69;;;29.33;43.56
46598;BME280;32318;48.858;8.252;2022-07-22T11:42:25;100265.63;;;29.49;42.08
46598;BME280;32318;48.858;8.252;2022-07-22T11:50:31;100262.00;;;29.53;42.63
46598;BME280;32318;48.858;8.252;2022-07-22T11:58:43;100266.78;;;29.67;42.79
46598;BME280;32318;48.858;8.252;2022-07-22T12:06:44;100252.03;;;29.82;42.90
46598;BME280;32318;48.858;8.252;2022-07-22T12:14:46;100238.44;;;29.96;42.46
46598;BME280;32318;48.858;8.252;2022-07-22T12:22:48;100225.66;;;30.05;40.14
46598;BME280;32318;48.858;8.252;2022-07-22T12:30:51;100227.00;;;30.27;41.05
46598;BME280;32318;48.858;8.252;2022-07-22T12:38:52;100221.88;;;30.39;40.86
46598;BME280;32318;48.858;8.252;2022-07-22T12:46:55;100204.66;;;30.47;40.17
46598;BME280;32318;48.858;8.252;2022-07-22T12:54:55;100200.72;;;30.73;39.33
46598;BME280;32318;48.858;8.252;2022-07-22T13:02:56;100191.75;;;30.81;39.64
46598;BME280;32318;48.858;8.252;2022-07-22T13:10:56;100175.16;;;31.00;38.52
46598;BME280;32318;48.858;8.252;2022-07-22T13:18:57;100180.34;;;31.02;38.60
46598;BME280;32318;48.858;8.252;2022-07-22T13:26:57;100172.28;;;31.05;39.14
46598;BME280;32318;48.858;8.252;2022-07-22T13:34:57;100179.63;;;31.43;38.03
46598;BME280;32318;48.858;8.252;2022-07-22T13:42:57;100173.81;;;31.44;37.61
46598;BME280;32318;48.858;8.252;2022-07-22T13:50:58;100159.38;;;31.61;37.75
46598;BME280;32318;48.858;8.252;2022-07-22T13:58:59;100152.66;;;31.68;37.40
46598;BME280;32318;48.858;8.252;2022-07-22T14:06:59;100145.97;;;31.83;36.22
46598;BME280;32318;48.858;8.252;2022-07-22T14:15:00;100145.34;;;32.00;36.06
46598;BME280;32318;48.858;8.252;2022-07-22T14:23:00;100144.13;;;31.92;36.16
46598;BME280;32318;48.858;8.252;2022-07-22T14:31:01;100158.66;;;31.84;36.34
46598;BME280;32318;48.858;8.252;2022-07-22T14:39:02;100165.03;;;32.07;36.18
46598;BME280;32318;48.858;8.252;2022-07-22T14:47:02;100164.66;;;32.00;36.15
46598;BME280;32318;48.858;8.252;2022-07-22T14:55:03;100168.00;;;32.25;36.19
46598;BME280;32318;48.858;8.252;2022-07-22T15:03:03;100171.66;;;32.20;35.46
46598;BME280;32318;48.858;8.252;2022-07-22T15:11:03;100151.06;;;31.89;35.57
46598;BME280;32318;48.858;8.252;2022-07-22T15:19:04;100145.94;;;31.97;35.76
46598;BME280;32318;48.858;8.252;2022-07-22T15:27:04;100136.91;;;32.05;35.70
46598;BME280;32318;48.858;8.252;2022-07-22T15:35:06;100136.50;;;32.12;35.60
46598;BME280;32318;48.858;8.252;2022-07-22T15:43:06;100125.78;;;32.10;35.56
46598;BME280;32318;48.858;8.252;2022-07-22T15:51:08;100136.47;;;32.26;35.70
46598;BME280;32318;48.858;8.252;2022-07-22T15:59:09;100112.38;;;32.03;35.53
46598;BME280;32318;48.858;8.252;2022-07-22T16:07:29;100111.16;;;31.96;35.77
46598;BME280;32318;48.858;8.252;2022-07-22T16:15:29;100100.25;;;31.90;35.66
46598;BME280;32318;48.858;8.252;2022-07-22T16:23:30;100105.25;;;31.88;35.84
46598;BME280;32318;48.858;8.252;2022-07-22T16:31:30;100103.19;;;31.71;36.11
46598;BME280;32318;48.858;8.252;2022-07-22T16:39:31;100102.66;;;31.69;36.47
46598;BME280;32318;48.858;8.252;2022-07-22T16:47:32;100100.94;;;31.45;37.10
46598;BME280;32318;48.858;8.252;2022-07-22T16:55:33;100115.56;;;31.18;38.12
46598;BME280;32318;48.858;8.252;2022-07-22T17:03:33;100124.06;;;30.89;38.59
46598;BME280;32318;48.858;8.252;2022-07-22T17:11:33;100128.66;;;30.79;39.07
46598;BME280;32318;48.858;8.252;2022-07-22T17:19:34;100127.59;;;30.61;39.38
46598;BME280;32318;48.858;8.252;2022-07-22T17:27:34;100122.78;;;30.53;39.34
46598;BME280;32318;48.858;8.252;2022-07-22T17:35:35;100142.72;;;30.45;39.73
46598;BME280;32318;48.858;8.252;2022-07-22T17:43:38;100147.81;;;30.38;39.91
46598;BME280;32318;48.858;8.252;2022-07-22T17:51:39;100152.41;;;30.23;40.27
46598;BME280;32318;48.858;8.252;2022-07-22T17:59:39;100155.50;;;30.02;40.92
46598;BME280;32318;48.858;8.252;2022-07-22T18:07:39;100117.84;;;29.98;40.72
46598;BME280;32318;48.858;8.252;2022-07-22T18:15:39;100102.47;;;29.92;40.70
46598;BME280;32318;48.858;8.252;2022-07-22T18:23:40;100122.94;;;29.85;41.46
46598;BME280;32318;48.858;8.252;2022-07-22T18:31:40;100135.13;;;29.60;41.70
46598;BME280;32318;48.858;8.252;2022-07-22T18:39:40;100126.81;;;29.41;42.36
46598;BME280;32318;48.858;8.252;2022-07-22T18:47:41;100102.78;;;29.22;42.80
46598;BME280;32318;48.858;8.252;2022-07-22T18:55:41;100100.31;;;28.96;43.41
46598;BME280;32318;48.858;8.252;2022-07-22T19:03:41;100127.81;;;28.96;43.90
46598;BME280;32318;48.858;8.252;2022-07-22T19:11:42;100138.56;;;28.93;43.95
46598;BME280;32318;48.858;8.252;2022-07-22T19:19:42;100163.03;;;28.94;44.47
46598;BME280;32318;48.858;8.252;2022-07-22T19:27:42;100168.03;;;28.87;44.82
46598;BME280;32318;48.858;8.252;2022-07-22T19:35:42;100184.66;;;28.67;45.70
46598;BME280;32318;48.858;8.252;2022-07-22T19:43:43;100192.78;;;28.47;46.35
46598;BME280;32318;48.858;8.252;2022-07-22T19:51:43;100208.56;;;28.26;46.88
46598;BME280;32318;48.858;8.252;2022-07-22T19:59:43;100197.31;;;28.23;47.12
46598;BME280;32318;48.858;8.252;2022-07-22T20:07:43;100197.66;;;28.06;46.92
46598;BME280;32318;48.858;8.252;2022-07-22T20:15:44;100174.91;;;28.00;47.05
46598;BME280;32318;48.858;8.252;2022-07-22T20:23:44;100167.81;;;27.94;47.40
46598;BME280;32318;48.858;8.252;2022-07-22T20:31:47;100142.38;;;27.83;47.03
46598;BME280;32318;48.858;8.252;2022-07-22T20:39:49;100134.69;;;27.75;46.99
46598;BME280;32318;48.858;8.252;2022-07-22T20:47:49;100158.94;;;27.57;47.78
46598;BME280;32318;48.858;8.252;2022-07-22T20:55:49;100138.44;;;27.44;48.16
46598;BME280;32318;48.858;8.252;2022-07-22T21:03:50;100101.94;;;27.33;48.11
46598;BME280;32318;48.858;8.252;2022-07-22T21:12:12;100108.81;;;27.31;49.09
46598;BME280;32318;48.858;8.252;2022-07-22T21:20:16;100133.19;;;27.32;48.22
46598;BME280;32318;48.858;8.252;2022-07-22T21:28:24;100131.56;;;27.31;48.13
46598;BME280;32318;48.858;8.252;2022-07-22T21:36:24;100122.81;;;27.29;48.38
46598;BME280;32318;48.858;8.252;2022-07-22T21:44:25;100116.50;;;27.29;48.26
46598;BME280;32318;48.858;8.252;2022-07-22T21:52:25;100122.81;;;27.24;48.41
46598;BME280;32318;48.858;8.252;2022-07-22T22:00:25;100131.59;;;27.16;48.27
46598;BME280;32318;48.858;8.252;2022-07-22T22:08:25;100154.09;;;27.13;47.96
46598;BME280;32318;48.858;8.252;2022-07-22T22:16:26;100157.97;;;27.01;48.46
46598;BME280;32318;48.858;8.252;2022-07-22T22:24:29;100161.22;;;26.98;48.83
46598;BME280;32318;48.858;8.252;2022-07-22T22:32:30;100161.50;;;27.02;48.73
46598;BME280;32318;48.858;8.252;2022-07-22T22:40:30;100185.38;;;26.96;48.73
46598;BME280;32318;48.858;8.252;2022-07-22T22:48:30;100195.78;;;26.84;49.21
46598;BME280;32318;48.858;8.252;2022-07-22T22:56:31;100187.25;;;26.75;50.02
46598;BME280;32318;48.858;8.252;2022-07-22T23:04:31;100186.16;;;26.60;50.23
46598;BME280;32318;48.858;8.252;2022-07-22T23:12:32;100191.88;;;26.54;50.57
46598;BME280;32318;48.858;8.252;2022-07-22T23:20:32;100196.53;;;26.43;51.04
46598;BME280;32318;48.858;8.252;2022-07-22T23:28:48;100176.53;;;26.32;51.35
46598;BME280;32318;48.858;8.252;2022-07-22T23:36:50;100165.84;;;26.25;50.52
46598;BME280;32318;48.858;8.252;2022-07-22T23:44:50;100132.75;;;26.27;50.16
46598;BME280;32318;48.858;8.252;2022-07-22T23:52:51;100168.59;;;26.20;50.02
